Pagrindinis puslapis
METAR-TAF:

METAR-TAF

Oro uostai :

Urgenčas, Uzbekija

platuma: 41-35N, ilguma: 060-38-42E, Aukštis: 98 m

Dabartinis oras

Ataskaita buvo paskelbta 19 minutes, ne 22:30 UTC
Ramus vėjas
Temperatūra 13°C
Drėgmė 67%
Slėgis 1020 hPa
Matomumas 10 km arba daugiau
nėra debesų žemiau 1500 m ir nėra kamuolinių lietaus debesų

METAR: UTNU 162230Z 00000KT CAVOK 13/07 Q1020 R31/CLRD70 NOSIG

Laikas: 03:49 (22:49 UTC)

Prognozė

Ataskaita buvo paskelbta 5 valandos ir 49 minutes, ne 17:00 UTC
Prognozė galioja nuo 16 metu 18 UTC su 17 metu 18 UTC
Vėjas 4 kt nuo kintamojo kryptimis
Matomumas 10 km arba daugiau
nėra debesų žemiau 1500 m ir nėra kamuolinių lietaus debesų
Laikinai
nuo 16 metu 18 UTC su 17 metu 02 UTC
Vėjas 8 kt iš Rytų/Šiaurės Rytų
Matomumas: 5000 m
migla,

TAF: UTNU 161700Z 1618/1718 VRB04KT CAVOK TEMPO 1618/1702 06008KT 5000 HZ

Orai ataskaitas ir orų prognozės (METAR, TAF).

turimą stotys yra geltonos ir raudonos taškus žemėlapyje.

Perkelti pele per norėdami pamatyti stoties vardą.

Tada spustelėkite, norėdami matyti oro stebėjimo ir prognozės.

Norėdami pakeisti žemėlapį: spustelėkite ant žalios mygtukų su juodo kryžiaus žemyn,; žalią mygtuką su brūkšneliu, jei norite nutolinti; arba žalių rodyklių gretimoms žemėlapius.


METAR-TAF: